sensor_id;sensor_type;location;lat;lon;timestamp;P1;durP1;ratioP1;P2;durP2;ratioP2
3307;SDS011;1666;48.898;9.182;2024-02-21T00:02:13;13.23;;;4.93;;
3307;SDS011;1666;48.898;9.182;2024-02-21T00:04:43;11.40;;;4.20;;
3307;SDS011;1666;48.898;9.182;2024-02-21T00:07:13;10.45;;;4.35;;
3307;SDS011;1666;48.898;9.182;2024-02-21T00:09:46;10.85;;;4.97;;
3307;SDS011;1666;48.898;9.182;2024-02-21T00:12:16;6.88;;;4.10;;
3307;SDS011;1666;48.898;9.182;2024-02-21T00:14:46;14.68;;;4.53;;
3307;SDS011;1666;48.898;9.182;2024-02-21T00:17:16;11.45;;;4.68;;
3307;SDS011;1666;48.898;9.182;2024-02-21T00:19:46;11.70;;;4.85;;
3307;SDS011;1666;48.898;9.182;2024-02-21T00:22:16;13.90;;;4.78;;
3307;SDS011;1666;48.898;9.182;2024-02-21T00:24:49;12.48;;;4.60;;
3307;SDS011;1666;48.898;9.182;2024-02-21T00:27:19;12.73;;;5.00;;
3307;SDS011;1666;48.898;9.182;2024-02-21T00:29:49;10.05;;;4.75;;
3307;SDS011;1666;48.898;9.182;2024-02-21T00:32:19;12.13;;;5.03;;
3307;SDS011;1666;48.898;9.182;2024-02-21T00:34:50;12.27;;;4.63;;
3307;SDS011;1666;48.898;9.182;2024-02-21T00:37:20;13.48;;;4.97;;
3307;SDS011;1666;48.898;9.182;2024-02-21T00:39:53;10.27;;;4.50;;
3307;SDS011;1666;48.898;9.182;2024-02-21T00:42:23;10.18;;;4.80;;
3307;SDS011;1666;48.898;9.182;2024-02-21T00:44:53;12.38;;;5.45;;
3307;SDS011;1666;48.898;9.182;2024-02-21T00:47:23;15.50;;;4.75;;
3307;SDS011;1666;48.898;9.182;2024-02-21T00:49:54;11.75;;;4.88;;
3307;SDS011;1666;48.898;9.182;2024-02-21T00:52:24;9.82;;;4.35;;
3307;SDS011;1666;48.898;9.182;2024-02-21T00:54:57;8.75;;;4.47;;
3307;SDS011;1666;48.898;9.182;2024-02-21T00:57:27;11.15;;;5.03;;
3307;SDS011;1666;48.898;9.182;2024-02-21T00:59:57;11.10;;;5.10;;
3307;SDS011;1666;48.898;9.182;2024-02-21T01:02:28;9.63;;;4.90;;
3307;SDS011;1666;48.898;9.182;2024-02-21T01:04:58;9.70;;;5.20;;
3307;SDS011;1666;48.898;9.182;2024-02-21T01:07:28;15.02;;;5.70;;
3307;SDS011;1666;48.898;9.182;2024-02-21T01:10:01;10.52;;;4.75;;
3307;SDS011;1666;48.898;9.182;2024-02-21T01:12:31;13.25;;;4.80;;
3307;SDS011;1666;48.898;9.182;2024-02-21T01:15:01;14.73;;;5.07;;
3307;SDS011;1666;48.898;9.182;2024-02-21T01:17:31;9.20;;;4.30;;
3307;SDS011;1666;48.898;9.182;2024-02-21T01:20:02;11.88;;;4.65;;
3307;SDS011;1666;48.898;9.182;2024-02-21T01:22:33;9.65;;;4.40;;
3307;SDS011;1666;48.898;9.182;2024-02-21T01:25:06;8.93;;;4.43;;
3307;SDS011;1666;48.898;9.182;2024-02-21T01:27:37;13.80;;;5.15;;
3307;SDS011;1666;48.898;9.182;2024-02-21T01:30:08;12.70;;;4.80;;
3307;SDS011;1666;48.898;9.182;2024-02-21T01:32:39;13.38;;;5.15;;
3307;SDS011;1666;48.898;9.182;2024-02-21T01:35:09;10.30;;;5.30;;
3307;SDS011;1666;48.898;9.182;2024-02-21T01:37:40;14.43;;;5.78;;
3307;SDS011;1666;48.898;9.182;2024-02-21T01:40:14;13.35;;;5.68;;
3307;SDS011;1666;48.898;9.182;2024-02-21T01:42:44;15.70;;;5.90;;
3307;SDS011;1666;48.898;9.182;2024-02-21T01:45:15;9.85;;;5.13;;
3307;SDS011;1666;48.898;9.182;2024-02-21T01:47:45;9.20;;;4.30;;
3307;SDS011;1666;48.898;9.182;2024-02-21T01:50:16;9.27;;;4.40;;
3307;SDS011;1666;48.898;9.182;2024-02-21T01:52:47;8.38;;;4.30;;
3307;SDS011;1666;48.898;9.182;2024-02-21T01:55:21;11.27;;;3.92;;
3307;SDS011;1666;48.898;9.182;2024-02-21T01:57:51;9.20;;;4.50;;
3307;SDS011;1666;48.898;9.182;2024-02-21T02:00:21;14.15;;;6.07;;
3307;SDS011;1666;48.898;9.182;2024-02-21T02:02:53;11.38;;;4.25;;
3307;SDS011;1666;48.898;9.182;2024-02-21T02:05:24;10.93;;;3.83;;
3307;SDS011;1666;48.898;9.182;2024-02-21T02:07:54;9.30;;;3.80;;
3307;SDS011;1666;48.898;9.182;2024-02-21T02:10:26;13.30;;;4.28;;
3307;SDS011;1666;48.898;9.182;2024-02-21T02:12:57;9.90;;;3.72;;
3307;SDS011;1666;48.898;9.182;2024-02-21T02:15:27;11.23;;;3.95;;
3307;SDS011;1666;48.898;9.182;2024-02-21T02:18:07;10.65;;;3.75;;
3307;SDS011;1666;48.898;9.182;2024-02-21T02:20:37;6.72;;;3.35;;
3307;SDS011;1666;48.898;9.182;2024-02-21T02:23:09;13.93;;;3.78;;
3307;SDS011;1666;48.898;9.182;2024-02-21T02:25:43;8.65;;;3.60;;
3307;SDS011;1666;48.898;9.182;2024-02-21T02:28:16;12.98;;;3.35;;
3307;SDS011;1666;48.898;9.182;2024-02-21T02:30:46;8.70;;;3.53;;
3307;SDS011;1666;48.898;9.182;2024-02-21T02:33:16;10.50;;;3.92;;
3307;SDS011;1666;48.898;9.182;2024-02-21T02:35:47;11.20;;;3.55;;
3307;SDS011;1666;48.898;9.182;2024-02-21T02:38:17;8.43;;;3.40;;
3307;SDS011;1666;48.898;9.182;2024-02-21T02:40:49;6.93;;;3.50;;
3307;SDS011;1666;48.898;9.182;2024-02-21T02:43:19;7.18;;;3.63;;
3307;SDS011;1666;48.898;9.182;2024-02-21T02:45:49;13.65;;;3.97;;
3307;SDS011;1666;48.898;9.182;2024-02-21T02:48:19;11.80;;;4.13;;
3307;SDS011;1666;48.898;9.182;2024-02-21T02:50:50;12.50;;;4.35;;
3307;SDS011;1666;48.898;9.182;2024-02-21T02:53:20;10.02;;;3.78;;
3307;SDS011;1666;48.898;9.182;2024-02-21T02:55:52;8.13;;;3.40;;
3307;SDS011;1666;48.898;9.182;2024-02-21T02:58:23;7.63;;;3.38;;
3307;SDS011;1666;48.898;9.182;2024-02-21T03:00:53;10.02;;;4.28;;
3307;SDS011;1666;48.898;9.182;2024-02-21T03:03:23;10.68;;;3.95;;
3307;SDS011;1666;48.898;9.182;2024-02-21T03:05:53;9.65;;;3.88;;
3307;SDS011;1666;48.898;9.182;2024-02-21T03:08:23;10.98;;;4.07;;
3307;SDS011;1666;48.898;9.182;2024-02-21T03:10:56;9.93;;;3.70;;
3307;SDS011;1666;48.898;9.182;2024-02-21T03:13:27;9.80;;;4.45;;
3307;SDS011;1666;48.898;9.182;2024-02-21T03:15:57;8.93;;;3.80;;
3307;SDS011;1666;48.898;9.182;2024-02-21T03:18:27;10.90;;;4.28;;
3307;SDS011;1666;48.898;9.182;2024-02-21T03:21:01;10.05;;;3.90;;
3307;SDS011;1666;48.898;9.182;2024-02-21T03:23:31;6.68;;;3.80;;
3307;SDS011;1666;48.898;9.182;2024-02-21T03:26:04;13.68;;;4.50;;
3307;SDS011;1666;48.898;9.182;2024-02-21T03:28:34;12.43;;;3.97;;
3307;SDS011;1666;48.898;9.182;2024-02-21T03:31:06;10.98;;;4.18;;
3307;SDS011;1666;48.898;9.182;2024-02-21T03:33:34;11.02;;;4.70;;
3307;SDS011;1666;48.898;9.182;2024-02-21T03:36:04;12.60;;;4.30;;
3307;SDS011;1666;48.898;9.182;2024-02-21T03:38:34;11.50;;;4.18;;
3307;SDS011;1666;48.898;9.182;2024-02-21T03:41:07;13.48;;;4.90;;
3307;SDS011;1666;48.898;9.182;2024-02-21T03:43:37;9.90;;;4.82;;
3307;SDS011;1666;48.898;9.182;2024-02-21T03:46:07;8.98;;;4.40;;
3307;SDS011;1666;48.898;9.182;2024-02-21T03:48:38;8.07;;;3.33;;
3307;SDS011;1666;48.898;9.182;2024-02-21T03:51:08;11.98;;;4.50;;
3307;SDS011;1666;48.898;9.182;2024-02-21T03:53:38;8.18;;;3.85;;
3307;SDS011;1666;48.898;9.182;2024-02-21T03:56:10;11.85;;;4.38;;
3307;SDS011;1666;48.898;9.182;2024-02-21T03:58:40;10.40;;;3.80;;
3307;SDS011;1666;48.898;9.182;2024-02-21T04:01:10;9.68;;;4.20;;
3307;SDS011;1666;48.898;9.182;2024-02-21T04:03:40;9.32;;;4.22;;
3307;SDS011;1666;48.898;9.182;2024-02-21T04:06:11;13.13;;;4.20;;
3307;SDS011;1666;48.898;9.182;2024-02-21T04:08:41;13.20;;;5.00;;
3307;SDS011;1666;48.898;9.182;2024-02-21T04:11:14;13.23;;;4.40;;
3307;SDS011;1666;48.898;9.182;2024-02-21T04:13:45;16.10;;;5.22;;
3307;SDS011;1666;48.898;9.182;2024-02-21T04:16:17;9.70;;;4.47;;
3307;SDS011;1666;48.898;9.182;2024-02-21T04:18:47;10.48;;;4.28;;
3307;SDS011;1666;48.898;9.182;2024-02-21T04:21:17;10.38;;;4.35;;
3307;SDS011;1666;48.898;9.182;2024-02-21T04:23:47;9.07;;;4.25;;
3307;SDS011;1666;48.898;9.182;2024-02-21T04:26:20;11.95;;;4.88;;
3307;SDS011;1666;48.898;9.182;2024-02-21T04:28:50;12.40;;;5.32;;
3307;SDS011;1666;48.898;9.182;2024-02-21T04:31:21;13.35;;;5.00;;
3307;SDS011;1666;48.898;9.182;2024-02-21T04:33:51;13.35;;;4.72;;
3307;SDS011;1666;48.898;9.182;2024-02-21T04:36:21;9.57;;;4.25;;
3307;SDS011;1666;48.898;9.182;2024-02-21T04:38:51;8.90;;;3.92;;
3307;SDS011;1666;48.898;9.182;2024-02-21T04:41:24;7.47;;;4.10;;
3307;SDS011;1666;48.898;9.182;2024-02-21T04:43:54;10.75;;;4.85;;
3307;SDS011;1666;48.898;9.182;2024-02-21T04:46:24;8.43;;;4.07;;
3307;SDS011;1666;48.898;9.182;2024-02-21T04:48:54;11.38;;;4.10;;
3307;SDS011;1666;48.898;9.182;2024-02-21T04:51:24;11.70;;;4.20;;
3307;SDS011;1666;48.898;9.182;2024-02-21T04:53:54;10.00;;;4.65;;
3307;SDS011;1666;48.898;9.182;2024-02-21T04:56:27;11.27;;;4.45;;
3307;SDS011;1666;48.898;9.182;2024-02-21T04:58:57;11.60;;;3.88;;
3307;SDS011;1666;48.898;9.182;2024-02-21T05:01:27;9.70;;;4.18;;
3307;SDS011;1666;48.898;9.182;2024-02-21T05:03:58;12.60;;;4.20;;
3307;SDS011;1666;48.898;9.182;2024-02-21T05:06:29;10.43;;;4.38;;
3307;SDS011;1666;48.898;9.182;2024-02-21T05:08:59;10.77;;;4.43;;
3307;SDS011;1666;48.898;9.182;2024-02-21T05:11:32;18.92;;;5.45;;
3307;SDS011;1666;48.898;9.182;2024-02-21T05:14:02;11.95;;;4.38;;
3307;SDS011;1666;48.898;9.182;2024-02-21T05:16:33;9.43;;;4.20;;
3307;SDS011;1666;48.898;9.182;2024-02-21T05:19:03;10.35;;;4.55;;
3307;SDS011;1666;48.898;9.182;2024-02-21T05:21:33;10.32;;;4.10;;
3307;SDS011;1666;48.898;9.182;2024-02-21T05:24:04;9.07;;;3.72;;
3307;SDS011;1666;48.898;9.182;2024-02-21T05:26:37;10.20;;;4.28;;
3307;SDS011;1666;48.898;9.182;2024-02-21T05:29:07;11.52;;;4.10;;
3307;SDS011;1666;48.898;9.182;2024-02-21T05:31:54;13.27;;;4.65;;
3307;SDS011;1666;48.898;9.182;2024-02-21T05:34:25;9.88;;;4.65;;
3307;SDS011;1666;48.898;9.182;2024-02-21T05:36:56;13.95;;;4.72;;
3307;SDS011;1666;48.898;9.182;2024-02-21T05:39:27;10.93;;;4.32;;
3307;SDS011;1666;48.898;9.182;2024-02-21T05:42:00;7.35;;;4.10;;
3307;SDS011;1666;48.898;9.182;2024-02-21T05:44:30;10.75;;;4.00;;
3307;SDS011;1666;48.898;9.182;2024-02-21T05:47:00;12.20;;;4.60;;
3307;SDS011;1666;48.898;9.182;2024-02-21T05:49:30;16.58;;;6.68;;
3307;SDS011;1666;48.898;9.182;2024-02-21T05:52:00;19.70;;;6.43;;
3307;SDS011;1666;48.898;9.182;2024-02-21T05:54:30;15.93;;;6.15;;
3307;SDS011;1666;48.898;9.182;2024-02-21T05:57:03;17.17;;;6.20;;
3307;SDS011;1666;48.898;9.182;2024-02-21T05:59:33;12.55;;;5.43;;
3307;SDS011;1666;48.898;9.182;2024-02-21T06:02:06;12.20;;;5.05;;
3307;SDS011;1666;48.898;9.182;2024-02-21T06:04:37;10.73;;;5.05;;
3307;SDS011;1666;48.898;9.182;2024-02-21T06:07:07;13.30;;;5.35;;
3307;SDS011;1666;48.898;9.182;2024-02-21T06:09:37;12.43;;;5.03;;
3307;SDS011;1666;48.898;9.182;2024-02-21T06:12:10;7.28;;;4.13;;
3307;SDS011;1666;48.898;9.182;2024-02-21T06:14:40;12.18;;;4.82;;
3307;SDS011;1666;48.898;9.182;2024-02-21T06:17:10;12.13;;;5.13;;
3307;SDS011;1666;48.898;9.182;2024-02-21T06:19:42;9.93;;;4.30;;
3307;SDS011;1666;48.898;9.182;2024-02-21T06:22:12;11.20;;;4.40;;
3307;SDS011;1666;48.898;9.182;2024-02-21T06:24:42;10.55;;;4.32;;
3307;SDS011;1666;48.898;9.182;2024-02-21T06:27:15;11.00;;;4.18;;
3307;SDS011;1666;48.898;9.182;2024-02-21T06:29:45;10.00;;;4.18;;
3307;SDS011;1666;48.898;9.182;2024-02-21T06:32:15;12.93;;;4.45;;
3307;SDS011;1666;48.898;9.182;2024-02-21T06:34:46;12.85;;;5.15;;
3307;SDS011;1666;48.898;9.182;2024-02-21T06:37:16;9.20;;;4.70;;
3307;SDS011;1666;48.898;9.182;2024-02-21T06:39:46;12.23;;;5.57;;
3307;SDS011;1666;48.898;9.182;2024-02-21T06:42:18;8.50;;;4.85;;
3307;SDS011;1666;48.898;9.182;2024-02-21T06:44:48;11.48;;;4.47;;
3307;SDS011;1666;48.898;9.182;2024-02-21T06:47:18;10.43;;;4.93;;
3307;SDS011;1666;48.898;9.182;2024-02-21T06:49:49;12.60;;;5.78;;
3307;SDS011;1666;48.898;9.182;2024-02-21T06:52:19;11.38;;;5.35;;
3307;SDS011;1666;48.898;9.182;2024-02-21T06:54:51;12.48;;;4.55;;
3307;SDS011;1666;48.898;9.182;2024-02-21T06:57:24;12.60;;;5.15;;
3307;SDS011;1666;48.898;9.182;2024-02-21T06:59:54;11.77;;;4.95;;
3307;SDS011;1666;48.898;9.182;2024-02-21T07:02:24;9.55;;;4.10;;
3307;SDS011;1666;48.898;9.182;2024-02-21T07:04:54;9.55;;;4.18;;
3307;SDS011;1666;48.898;9.182;2024-02-21T07:07:24;8.45;;;4.32;;
3307;SDS011;1666;48.898;9.182;2024-02-21T07:09:56;12.80;;;4.13;;
3307;SDS011;1666;48.898;9.182;2024-02-21T07:12:29;5.80;;;3.58;;
3307;SDS011;1666;48.898;9.182;2024-02-21T07:15:00;12.55;;;4.53;;
3307;SDS011;1666;48.898;9.182;2024-02-21T07:17:33;12.05;;;4.22;;
3307;SDS011;1666;48.898;9.182;2024-02-21T07:20:03;12.82;;;4.65;;
3307;SDS011;1666;48.898;9.182;2024-02-21T07:22:34;9.80;;;3.97;;
3307;SDS011;1666;48.898;9.182;2024-02-21T07:25:05;8.27;;;5.13;;
3307;SDS011;1666;48.898;9.182;2024-02-21T07:27:38;11.27;;;5.00;;
3307;SDS011;1666;48.898;9.182;2024-02-21T07:30:09;12.65;;;4.25;;
3307;SDS011;1666;48.898;9.182;2024-02-21T07:32:43;13.02;;;4.97;;
3307;SDS011;1666;48.898;9.182;2024-02-21T07:35:13;9.05;;;4.47;;
3307;SDS011;1666;48.898;9.182;2024-02-21T07:37:43;9.75;;;4.70;;
3307;SDS011;1666;48.898;9.182;2024-02-21T07:40:14;12.27;;;4.40;;
3307;SDS011;1666;48.898;9.182;2024-02-21T07:42:47;10.43;;;4.68;;
3307;SDS011;1666;48.898;9.182;2024-02-21T07:45:17;11.55;;;4.75;;
3307;SDS011;1666;48.898;9.182;2024-02-21T07:47:50;11.57;;;4.03;;
3307;SDS011;1666;48.898;9.182;2024-02-21T07:50:20;13.77;;;4.53;;
3307;SDS011;1666;48.898;9.182;2024-02-21T07:52:50;14.35;;;4.80;;
3307;SDS011;1666;48.898;9.182;2024-02-21T07:55:21;14.15;;;5.47;;
3307;SDS011;1666;48.898;9.182;2024-02-21T07:57:53;12.35;;;5.38;;
3307;SDS011;1666;48.898;9.182;2024-02-21T08:00:23;10.82;;;5.30;;
3307;SDS011;1666;48.898;9.182;2024-02-21T08:02:53;9.70;;;4.18;;
3307;SDS011;1666;48.898;9.182;2024-02-21T08:05:23;8.82;;;3.50;;
3307;SDS011;1666;48.898;9.182;2024-02-21T08:07:53;9.80;;;4.43;;
3307;SDS011;1666;48.898;9.182;2024-02-21T08:10:24;7.95;;;3.97;;
3307;SDS011;1666;48.898;9.182;2024-02-21T08:12:57;10.00;;;3.67;;
3307;SDS011;1666;48.898;9.182;2024-02-21T08:15:27;9.38;;;3.60;;
3307;SDS011;1666;48.898;9.182;2024-02-21T08:17:57;9.43;;;2.55;;
3307;SDS011;1666;48.898;9.182;2024-02-21T08:20:30;8.40;;;3.30;;
3307;SDS011;1666;48.898;9.182;2024-02-21T08:23:00;9.63;;;2.80;;
3307;SDS011;1666;48.898;9.182;2024-02-21T08:25:30;13.15;;;8.65;;
3307;SDS011;1666;48.898;9.182;2024-02-21T08:28:04;9.10;;;3.05;;
3307;SDS011;1666;48.898;9.182;2024-02-21T08:30:35;8.85;;;3.03;;
3307;SDS011;1666;48.898;9.182;2024-02-21T08:33:05;13.63;;;4.03;;
3307;SDS011;1666;48.898;9.182;2024-02-21T08:35:35;9.25;;;3.08;;
3307;SDS011;1666;48.898;9.182;2024-02-21T08:38:05;12.38;;;3.75;;
3307;SDS011;1666;48.898;9.182;2024-02-21T08:40:35;6.25;;;2.60;;
3307;SDS011;1666;48.898;9.182;2024-02-21T08:43:07;6.40;;;2.80;;
3307;SDS011;1666;48.898;9.182;2024-02-21T08:45:38;8.80;;;2.42;;
3307;SDS011;1666;48.898;9.182;2024-02-21T08:48:08;7.30;;;2.58;;
3307;SDS011;1666;48.898;9.182;2024-02-21T08:50:38;6.13;;;3.38;;
3307;SDS011;1666;48.898;9.182;2024-02-21T08:53:08;7.78;;;2.83;;
3307;SDS011;1666;48.898;9.182;2024-02-21T08:55:39;11.60;;;2.78;;
3307;SDS011;1666;48.898;9.182;2024-02-21T08:58:13;10.32;;;2.70;;
3307;SDS011;1666;48.898;9.182;2024-02-21T09:00:47;11.13;;;3.00;;
3307;SDS011;1666;48.898;9.182;2024-02-21T09:03:17;7.38;;;2.35;;
3307;SDS011;1666;48.898;9.182;2024-02-21T09:05:48;9.02;;;2.80;;
3307;SDS011;1666;48.898;9.182;2024-02-21T09:08:18;7.78;;;2.30;;
3307;SDS011;1666;48.898;9.182;2024-02-21T09:10:48;5.55;;;2.53;;
3307;SDS011;1666;48.898;9.182;2024-02-21T09:13:21;9.75;;;2.80;;
3307;SDS011;1666;48.898;9.182;2024-02-21T09:15:51;10.48;;;2.50;;
3307;SDS011;1666;48.898;9.182;2024-02-21T09:18:22;8.00;;;2.90;;
3307;SDS011;1666;48.898;9.182;2024-02-21T09:20:57;8.77;;;3.35;;
3307;SDS011;1666;48.898;9.182;2024-02-21T09:23:27;8.95;;;2.95;;
3307;SDS011;1666;48.898;9.182;2024-02-21T09:25:58;10.95;;;3.03;;
3307;SDS011;1666;48.898;9.182;2024-02-21T09:28:33;10.40;;;4.43;;
3307;SDS011;1666;48.898;9.182;2024-02-21T09:31:03;8.60;;;2.75;;
3307;SDS011;1666;48.898;9.182;2024-02-21T09:33:33;10.02;;;2.78;;
3307;SDS011;1666;48.898;9.182;2024-02-21T09:36:04;7.05;;;2.92;;
3307;SDS011;1666;48.898;9.182;2024-02-21T09:38:35;11.15;;;2.95;;
3307;SDS011;1666;48.898;9.182;2024-02-21T09:41:08;14.27;;;2.53;;
3307;SDS011;1666;48.898;9.182;2024-02-21T09:43:54;6.70;;;2.40;;
3307;SDS011;1666;48.898;9.182;2024-02-21T09:46:24;5.78;;;2.38;;
3307;SDS011;1666;48.898;9.182;2024-02-21T09:49:08;9.25;;;2.22;;
3307;SDS011;1666;48.898;9.182;2024-02-21T09:51:44;8.25;;;2.60;;
3307;SDS011;1666;48.898;9.182;2024-02-21T09:54:16;6.53;;;2.63;;
3307;SDS011;1666;48.898;9.182;2024-02-21T09:56:47;5.45;;;1.92;;
3307;SDS011;1666;48.898;9.182;2024-02-21T09:59:22;12.45;;;2.50;;
3307;SDS011;1666;48.898;9.182;2024-02-21T10:01:53;6.05;;;2.22;;
3307;SDS011;1666;48.898;9.182;2024-02-21T10:04:24;6.38;;;1.98;;
3307;SDS011;1666;48.898;9.182;2024-02-21T10:06:54;10.52;;;2.33;;
3307;SDS011;1666;48.898;9.182;2024-02-21T10:09:24;5.40;;;2.75;;
3307;SDS011;1666;48.898;9.182;2024-02-21T10:12:07;9.55;;;2.90;;
3307;SDS011;1666;48.898;9.182;2024-02-21T10:14:42;8.20;;;2.17;;
3307;SDS011;1666;48.898;9.182;2024-02-21T10:17:15;10.77;;;2.38;;
3307;SDS011;1666;48.898;9.182;2024-02-21T10:19:47;3.30;;;1.80;;
3307;SDS011;1666;48.898;9.182;2024-02-21T10:22:19;7.32;;;2.40;;
3307;SDS011;1666;48.898;9.182;2024-02-21T10:24:50;5.65;;;2.13;;
3307;SDS011;1666;48.898;9.182;2024-02-21T10:27:23;5.00;;;2.35;;
3307;SDS011;1666;48.898;9.182;2024-02-21T10:29:55;5.55;;;2.33;;
3307;SDS011;1666;48.898;9.182;2024-02-21T10:32:25;9.15;;;2.00;;
3307;SDS011;1666;48.898;9.182;2024-02-21T10:35:01;13.02;;;2.45;;
3307;SDS011;1666;48.898;9.182;2024-02-21T10:37:32;8.48;;;2.30;;
3307;SDS011;1666;48.898;9.182;2024-02-21T10:40:03;7.68;;;2.40;;
3307;SDS011;1666;48.898;9.182;2024-02-21T10:42:34;6.45;;;1.90;;
3307;SDS011;1666;48.898;9.182;2024-02-21T10:45:09;9.18;;;2.40;;
3307;SDS011;1666;48.898;9.182;2024-02-21T10:47:42;5.65;;;2.00;;
3307;SDS011;1666;48.898;9.182;2024-02-21T10:50:20;8.50;;;2.40;;
3307;SDS011;1666;48.898;9.182;2024-02-21T10:52:55;4.93;;;2.17;;
3307;SDS011;1666;48.898;9.182;2024-02-21T10:55:36;7.93;;;2.47;;
3307;SDS011;1666;48.898;9.182;2024-02-21T10:58:09;7.38;;;2.42;;
3307;SDS011;1666;48.898;9.182;2024-02-21T11:00:43;4.30;;;1.90;;
3307;SDS011;1666;48.898;9.182;2024-02-21T11:03:13;9.18;;;2.08;;
3307;SDS011;1666;48.898;9.182;2024-02-21T11:05:44;5.03;;;2.15;;
3307;SDS011;1666;48.898;9.182;2024-02-21T11:08:15;4.45;;;1.83;;
3307;SDS011;1666;48.898;9.182;2024-02-21T11:10:46;5.63;;;2.20;;
3307;SDS011;1666;48.898;9.182;2024-02-21T11:13:16;8.85;;;2.25;;
3307;SDS011;1666;48.898;9.182;2024-02-21T11:15:48;5.95;;;2.20;;
3307;SDS011;1666;48.898;9.182;2024-02-21T11:18:23;6.97;;;2.10;;
3307;SDS011;1666;48.898;9.182;2024-02-21T11:20:53;8.15;;;1.88;;
3307;SDS011;1666;48.898;9.182;2024-02-21T11:23:24;9.10;;;2.63;;
3307;SDS011;1666;48.898;9.182;2024-02-21T11:26:03;6.40;;;2.65;;
3307;SDS011;1666;48.898;9.182;2024-02-21T11:28:34;5.95;;;2.75;;
3307;SDS011;1666;48.898;9.182;2024-02-21T11:31:11;5.50;;;1.75;;
3307;SDS011;1666;48.898;9.182;2024-02-21T11:33:43;7.43;;;2.08;;
3307;SDS011;1666;48.898;9.182;2024-02-21T11:36:22;3.80;;;1.90;;
3307;SDS011;1666;48.898;9.182;2024-02-21T11:38:54;7.50;;;2.10;;
3307;SDS011;1666;48.898;9.182;2024-02-21T11:41:24;6.85;;;1.83;;
3307;SDS011;1666;48.898;9.182;2024-02-21T11:43:54;7.28;;;2.15;;
3307;SDS011;1666;48.898;9.182;2024-02-21T11:46:26;12.65;;;2.72;;
3307;SDS011;1666;48.898;9.182;2024-02-21T11:48:56;7.13;;;1.90;;
3307;SDS011;1666;48.898;9.182;2024-02-21T11:51:28;5.38;;;2.15;;
3307;SDS011;1666;48.898;9.182;2024-02-21T11:53:58;5.85;;;2.08;;
3307;SDS011;1666;48.898;9.182;2024-02-21T11:56:30;5.88;;;2.30;;
3307;SDS011;1666;48.898;9.182;2024-02-21T11:59:00;9.45;;;2.30;;
3307;SDS011;1666;48.898;9.182;2024-02-21T12:01:35;5.47;;;2.08;;
3307;SDS011;1666;48.898;9.182;2024-02-21T12:04:05;7.53;;;2.13;;
3307;SDS011;1666;48.898;9.182;2024-02-21T12:06:36;3.92;;;1.92;;
3307;SDS011;1666;48.898;9.182;2024-02-21T12:09:07;5.82;;;2.25;;
3307;SDS011;1666;48.898;9.182;2024-02-21T12:11:38;9.10;;;2.25;;
3307;SDS011;1666;48.898;9.182;2024-02-21T12:14:08;6.00;;;2.40;;
3307;SDS011;1666;48.898;9.182;2024-02-21T12:16:41;5.93;;;2.15;;
3307;SDS011;1666;48.898;9.182;2024-02-21T12:19:14;8.45;;;2.33;;
3307;SDS011;1666;48.898;9.182;2024-02-21T12:21:45;5.82;;;1.83;;
3307;SDS011;1666;48.898;9.182;2024-02-21T12:24:17;4.10;;;1.80;;
3307;SDS011;1666;48.898;9.182;2024-02-21T12:26:50;5.68;;;2.00;;
3307;SDS011;1666;48.898;9.182;2024-02-21T12:29:21;4.13;;;1.80;;
3307;SDS011;1666;48.898;9.182;2024-02-21T12:31:55;5.55;;;1.98;;
3307;SDS011;1666;48.898;9.182;2024-02-21T12:34:25;3.72;;;1.70;;
3307;SDS011;1666;48.898;9.182;2024-02-21T12:37:14;6.13;;;2.25;;
3307;SDS011;1666;48.898;9.182;2024-02-21T12:39:45;8.07;;;3.28;;
3307;SDS011;1666;48.898;9.182;2024-02-21T12:42:16;6.65;;;3.35;;
3307;SDS011;1666;48.898;9.182;2024-02-21T12:44:46;5.72;;;2.70;;
3307;SDS011;1666;48.898;9.182;2024-02-21T12:47:19;3.25;;;1.83;;
3307;SDS011;1666;48.898;9.182;2024-02-21T12:49:51;7.78;;;2.17;;
3307;SDS011;1666;48.898;9.182;2024-02-21T12:52:21;4.90;;;2.00;;
3307;SDS011;1666;48.898;9.182;2024-02-21T12:54:51;5.35;;;1.90;;
3307;SDS011;1666;48.898;9.182;2024-02-21T12:57:23;4.80;;;1.70;;
3307;SDS011;1666;48.898;9.182;2024-02-21T12:59:54;6.45;;;3.53;;
3307;SDS011;1666;48.898;9.182;2024-02-21T13:02:26;6.18;;;2.50;;
3307;SDS011;1666;48.898;9.182;2024-02-21T13:04:56;5.75;;;1.88;;
3307;SDS011;1666;48.898;9.182;2024-02-21T13:07:27;6.32;;;1.90;;
3307;SDS011;1666;48.898;9.182;2024-02-21T13:09:59;5.72;;;2.20;;
3307;SDS011;1666;48.898;9.182;2024-02-21T13:12:30;5.13;;;1.77;;
3307;SDS011;1666;48.898;9.182;2024-02-21T13:15:00;5.35;;;1.52;;
3307;SDS011;1666;48.898;9.182;2024-02-21T13:17:32;4.18;;;1.85;;
3307;SDS011;1666;48.898;9.182;2024-02-21T13:20:03;6.38;;;1.80;;
3307;SDS011;1666;48.898;9.182;2024-02-21T13:22:35;4.97;;;1.60;;
3307;SDS011;1666;48.898;9.182;2024-02-21T13:25:05;5.07;;;1.63;;
3307;SDS011;1666;48.898;9.182;2024-02-21T13:27:37;5.55;;;1.75;;
3307;SDS011;1666;48.898;9.182;2024-02-21T13:30:07;4.65;;;1.90;;
3307;SDS011;1666;48.898;9.182;2024-02-21T13:32:42;5.30;;;1.77;;
3307;SDS011;1666;48.898;9.182;2024-02-21T13:37:43;5.85;;;1.60;;
3307;SDS011;1666;48.898;9.182;2024-02-21T13:40:13;4.90;;;1.95;;
3307;SDS011;1666;48.898;9.182;2024-02-21T13:42:43;3.92;;;1.40;;
3307;SDS011;1666;48.898;9.182;2024-02-21T13:45:13;6.05;;;1.85;;
3307;SDS011;1666;48.898;9.182;2024-02-21T13:47:44;7.63;;;4.82;;
3307;SDS011;1666;48.898;9.182;2024-02-21T13:50:14;6.53;;;2.85;;
3307;SDS011;1666;48.898;9.182;2024-02-21T13:52:54;5.10;;;1.70;;
3307;SDS011;1666;48.898;9.182;2024-02-21T13:55:26;8.32;;;2.55;;
3307;SDS011;1666;48.898;9.182;2024-02-21T13:57:56;5.13;;;2.20;;
3307;SDS011;1666;48.898;9.182;2024-02-21T14:00:26;6.43;;;2.25;;
3307;SDS011;1666;48.898;9.182;2024-02-21T14:02:59;8.52;;;1.90;;
3307;SDS011;1666;48.898;9.182;2024-02-21T14:05:29;14.50;;;2.30;;
3307;SDS011;1666;48.898;9.182;2024-02-21T14:07:59;5.93;;;2.03;;
3307;SDS011;1666;48.898;9.182;2024-02-21T14:10:29;5.75;;;2.67;;
3307;SDS011;1666;48.898;9.182;2024-02-21T14:13:00;6.63;;;1.95;;
3307;SDS011;1666;48.898;9.182;2024-02-21T14:15:30;5.68;;;2.20;;
3307;SDS011;1666;48.898;9.182;2024-02-21T14:18:03;5.95;;;2.20;;
3307;SDS011;1666;48.898;9.182;2024-02-21T14:20:37;5.05;;;2.15;;
3307;SDS011;1666;48.898;9.182;2024-02-21T14:23:07;8.15;;;2.17;;
3307;SDS011;1666;48.898;9.182;2024-02-21T14:25:37;7.40;;;2.30;;
3307;SDS011;1666;48.898;9.182;2024-02-21T14:28:08;5.63;;;2.25;;
3307;SDS011;1666;48.898;9.182;2024-02-21T14:30:38;8.20;;;2.22;;
3307;SDS011;1666;48.898;9.182;2024-02-21T14:33:11;12.45;;;3.05;;
3307;SDS011;1666;48.898;9.182;2024-02-21T14:35:41;6.35;;;2.20;;
3307;SDS011;1666;48.898;9.182;2024-02-21T14:38:11;8.65;;;4.00;;
3307;SDS011;1666;48.898;9.182;2024-02-21T14:40:41;7.45;;;2.50;;
3307;SDS011;1666;48.898;9.182;2024-02-21T14:43:11;6.38;;;3.15;;
3307;SDS011;1666;48.898;9.182;2024-02-21T14:45:41;5.75;;;2.08;;
3307;SDS011;1666;48.898;9.182;2024-02-21T14:48:16;6.63;;;2.88;;
3307;SDS011;1666;48.898;9.182;2024-02-21T14:50:48;9.38;;;3.83;;
3307;SDS011;1666;48.898;9.182;2024-02-21T14:53:18;6.05;;;2.88;;
3307;SDS011;1666;48.898;9.182;2024-02-21T14:55:48;7.63;;;2.70;;
3307;SDS011;1666;48.898;9.182;2024-02-21T14:58:18;5.68;;;2.60;;
3307;SDS011;1666;48.898;9.182;2024-02-21T15:00:48;7.07;;;2.15;;
3307;SDS011;1666;48.898;9.182;2024-02-21T15:03:22;7.72;;;2.15;;
3307;SDS011;1666;48.898;9.182;2024-02-21T15:05:54;5.47;;;2.30;;
3307;SDS011;1666;48.898;9.182;2024-02-21T15:08:26;6.63;;;2.45;;
3307;SDS011;1666;48.898;9.182;2024-02-21T15:10:56;4.88;;;2.40;;
3307;SDS011;1666;48.898;9.182;2024-02-21T15:13:27;6.13;;;2.83;;
3307;SDS011;1666;48.898;9.182;2024-02-21T15:15:57;8.57;;;2.45;;
3307;SDS011;1666;48.898;9.182;2024-02-21T15:18:30;7.88;;;2.30;;
3307;SDS011;1666;48.898;9.182;2024-02-21T15:23:33;9.40;;;2.83;;
3307;SDS011;1666;48.898;9.182;2024-02-21T15:26:03;9.60;;;2.78;;
3307;SDS011;1666;48.898;9.182;2024-02-21T15:28:34;11.15;;;2.50;;
3307;SDS011;1666;48.898;9.182;2024-02-21T15:31:04;6.80;;;2.58;;
3307;SDS011;1666;48.898;9.182;2024-02-21T15:33:37;10.68;;;3.53;;
3307;SDS011;1666;48.898;9.182;2024-02-21T15:36:07;9.70;;;3.13;;
3307;SDS011;1666;48.898;9.182;2024-02-21T15:38:38;24.83;;;13.73;;
3307;SDS011;1666;48.898;9.182;2024-02-21T15:41:08;34.00;;;20.15;;